Time;durP1;ratioP1;P1;durP2;ratioP2;P2;SDS_P1;SDS_P2;PMS_P1;PMS_P2;Temp;Humidity;BMP_temperature;BMP_pressure;BME280_temperature;BME280_humidity;BME280_pressure;Samples;Min_cycle;Max_cycle;Signal;HPM_P1;HPM_P2
2024/03/01 00:01:08;;;;;;;6.10;3.05;;;;;;;8.35;99.64;100082.03;5067461;28;20052;-72
2024/03/01 00:03:37;;;;;;;9.10;3.13;;;;;;;8.29;100.00;100083.25;5066174;28;20584;-73
2024/03/01 00:06:04;;;;;;;4.93;2.60;;;;;;;8.35;99.83;100091.03;5038875;28;20052;-72
2024/03/01 00:08:32;;;;;;;7.05;3.30;;;;;;;8.27;100.00;100082.75;5069494;28;20714;-72
2024/03/01 00:10:59;;;;;;;7.18;2.50;;;;;;;8.32;99.53;100091.69;5069565;28;20523;-72
2024/03/01 00:13:26;;;;;;;7.43;2.60;;;;;;;8.35;99.41;100091.03;5069257;28;20055;-73
2024/03/01 00:15:55;;;;;;;6.00;2.72;;;;;;;7.90;100.00;100111.34;5070189;28;20052;-72
2024/03/01 00:18:22;;;;;;;6.93;2.47;;;;;;;8.17;100.00;100113.16;5068054;28;20056;-72
2024/03/01 00:20:53;;;;;;;7.82;2.47;;;;;;;8.31;100.00;100122.19;5070183;28;20053;-73
2024/03/01 00:23:20;;;;;;;;;;;;;;;8.26;98.09;100109.41;5065931;28;20057;-72
2024/03/01 00:25:47;;;;;;;7.82;2.58;;;;;;;8.11;96.93;100120.72;5069395;28;19934;-73
2024/03/01 00:28:14;;;;;;;7.43;2.72;;;;;;;8.18;97.69;100120.25;5067355;28;20764;-74
2024/03/01 00:30:42;;;;;;;4.70;2.60;;;;;;;8.42;97.85;100126.28;5068565;28;20048;-72
2024/03/01 00:33:09;;;;;;;4.72;1.85;;;;;;;8.29;97.25;100124.41;5065273;28;20056;-72
2024/03/01 00:35:37;;;;;;;7.93;2.70;;;;;;;8.36;97.11;100125.59;5065559;28;20064;-73
2024/03/01 00:38:04;;;;;;;7.60;2.45;;;;;;;8.49;96.59;100134.91;5066417;28;20063;-73
2024/03/01 00:40:32;;;;;;;7.28;2.15;;;;;;;8.46;94.37;100135.50;5067103;28;20049;-72
2024/03/01 00:43:00;;;;;;;12.20;2.35;;;;;;;8.50;94.76;100142.81;5067092;28;20320;-74
2024/03/01 00:45:28;;;;;;;5.88;1.92;;;;;;;8.38;94.98;100139.81;5071934;28;20052;-71
2024/03/01 00:47:55;;;;;;;5.85;2.22;;;;;;;8.59;94.76;100142.84;5085941;28;20048;-72
2024/03/01 00:50:23;;;;;;;6.30;1.60;;;;;;;8.56;93.72;100143.50;5086391;28;20056;-73
2024/03/01 00:52:51;;;;;;;4.47;1.77;;;;;;;8.51;93.71;100143.59;5068096;28;20063;-73
2024/03/01 00:55:18;;;;;;;7.47;1.73;;;;;;;8.28;92.86;100142.00;5066155;28;20712;-73
2024/03/01 00:57:46;;;;;;;7.30;1.80;;;;;;;8.11;94.28;100133.63;5067308;28;20407;-73
2024/03/01 01:00:15;;;;;;;7.78;2.20;;;;;;;8.14;95.26;100133.00;5047621;28;20049;-72
2024/03/01 01:02:42;;;;;;;8.03;1.90;;;;;;;7.99;95.65;100139.66;5065986;28;20052;-73
2024/03/01 01:05:11;;;;;;;6.78;1.50;;;;;;;8.03;94.46;100140.66;5068020;28;20044;-73
2024/03/01 01:07:38;;;;;;;6.93;1.52;;;;;;;8.07;94.39;100143.59;5065956;28;20161;-73
2024/03/01 01:10:06;;;;;;;5.20;1.42;;;;;;;8.25;93.05;100131.63;5068157;28;20044;-74
2024/03/01 01:12:34;;;;;;;5.80;1.50;;;;;;;8.16;92.43;100137.03;5065739;28;20056;-74
2024/03/01 01:15:02;;;;;;;8.00;1.48;;;;;;;8.15;92.76;100140.91;5067765;28;20049;-73
2024/03/01 01:17:32;;;;;;;6.25;1.42;;;;;;;7.93;93.27;100129.94;5070782;28;20059;-72
2024/03/01 01:20:00;;;;;;;5.30;1.40;;;;;;;8.30;93.26;100143.31;5073770;28;20056;-72
2024/03/01 01:22:27;;;;;;;6.72;1.90;;;;;;;8.09;93.26;100150.38;5072268;28;20045;-72
2024/03/01 01:24:55;;;;;;;5.65;1.60;;;;;;;8.00;93.61;100139.34;5079563;28;20040;-73
2024/03/01 01:27:23;;;;;;;10.48;1.50;;;;;;;8.40;93.10;100142.25;5074718;28;20052;-72
2024/03/01 01:29:50;;;;;;;7.57;1.67;;;;;;;8.40;92.44;100143.06;5070814;28;20044;-73
2024/03/01 01:32:17;;;;;;;5.43;1.30;;;;;;;8.52;91.43;100156.22;5050942;28;20060;-74
2024/03/01 01:34:45;;;;;;;6.55;1.40;;;;;;;8.30;91.54;100150.75;5071441;28;20048;-72
2024/03/01 01:37:12;;;;;;;9.73;1.40;;;;;;;8.42;91.94;100161.97;5070740;28;20067;-73
2024/03/01 01:39:40;;;;;;;7.07;1.60;;;;;;;8.45;92.16;100155.84;5065545;28;20052;-74
2024/03/01 01:42:07;;;;;;;5.55;1.48;;;;;;;8.46;92.25;100163.75;5083793;28;20063;-74
2024/03/01 01:44:35;;;;;;;8.35;1.63;;;;;;;8.49;91.45;100165.09;5069297;28;20056;-74
2024/03/01 01:47:03;;;;;;;5.72;1.33;;;;;;;8.45;92.20;100164.91;5052181;28;20048;-72
2024/03/01 01:49:30;;;;;;;8.35;1.42;;;;;;;8.56;91.34;100152.50;5070206;28;20068;-72
2024/03/01 01:51:58;;;;;;;8.15;1.48;;;;;;;8.73;90.96;100154.56;5070681;28;20083;-73
2024/03/01 01:54:25;;;;;;;8.95;1.52;;;;;;;8.55;90.92;100148.16;5053871;28;20546;-72
2024/03/01 01:56:53;;;;;;;5.90;1.20;;;;;;;8.53;91.46;100135.88;5068409;28;20060;-75
2024/03/01 01:59:21;;;;;;;5.85;1.52;;;;;;;8.67;90.64;100123.69;5069985;28;20490;-73
2024/03/01 02:01:51;;;;;;;7.43;1.50;;;;;;;8.34;91.86;100132.50;5069859;28;20049;-73
2024/03/01 02:04:18;;;;;;;8.23;1.20;;;;;;;8.55;91.54;100128.13;5052644;28;20143;-73
2024/03/01 02:06:46;;;;;;;7.50;1.45;;;;;;;8.35;91.87;100134.94;5069876;28;20067;-73
2024/03/01 02:09:17;;;;;;;10.65;1.73;;;;;;;8.34;92.07;100116.88;5072661;28;20059;-73
2024/03/01 02:11:46;;;;;;;5.13;1.25;;;;;;;8.43;92.45;100114.19;5072753;28;20056;-73
2024/03/01 02:14:14;;;;;;;6.97;1.70;;;;;;;8.24;92.18;100119.06;5071884;28;20044;-75
2024/03/01 02:16:41;;;;;;;9.32;1.45;;;;;;;8.37;91.95;100107.22;5074129;28;20063;-73
2024/03/01 02:19:15;;;;;;;8.38;1.50;;;;;;;8.38;91.91;100112.38;5073686;28;20060;-73
2024/03/01 02:21:49;;;;;;;14.48;2.03;;;;;;;8.60;91.71;100103.28;5071042;28;20063;-72
2024/03/01 02:24:16;;;;;;;7.93;1.60;;;;;;;8.40;91.66;100099.16;5050814;28;20049;-72
2024/03/01 02:26:44;;;;;;;14.52;1.65;;;;;;;8.33;91.71;100095.25;5069100;28;20057;-74
2024/03/01 02:29:12;;;;;;;7.85;1.70;;;;;;;8.29;92.33;100086.81;5069327;28;20053;-73
2024/03/01 02:31:39;;;;;;;6.50;1.50;;;;;;;8.32;92.28;100086.19;5063415;28;20060;-72
2024/03/01 02:34:07;;;;;;;9.45;1.92;;;;;;;8.06;93.12;100081.63;5067812;28;20060;-74
2024/03/01 02:36:34;;;;;;;9.95;1.58;;;;;;;8.18;93.29;100070.88;5068966;28;20056;-74
2024/03/01 02:39:01;;;;;;;9.45;1.77;;;;;;;7.96;94.01;100069.81;5066738;28;20064;-71
2024/03/01 02:41:29;;;;;;;9.48;2.10;;;;;;;8.18;94.34;100066.22;5070908;28;20071;-72
2024/03/01 02:43:56;;;;;;;9.88;1.90;;;;;;;8.28;93.75;100063.25;5071715;28;20060;-74
2024/03/01 02:46:23;;;;;;;9.38;2.75;;;;;;;8.27;93.24;100052.59;5073550;28;20127;-72
2024/03/01 02:48:51;;;;;;;6.18;1.80;;;;;;;8.00;93.30;100048.84;5069861;28;20072;-74
2024/03/01 02:51:18;;;;;;;9.10;2.03;;;;;;;7.98;94.06;100050.28;5075105;28;20048;-73
2024/03/01 02:53:46;;;;;;;11.43;2.20;;;;;;;7.97;94.63;100048.66;5085069;28;20060;-72
2024/03/01 02:56:13;;;;;;;5.85;2.15;;;;;;;7.96;94.83;100039.63;5077500;28;20053;-72
2024/03/01 02:58:41;;;;;;;8.98;2.17;;;;;;;7.93;94.40;100034.75;5074133;28;20060;-72
2024/03/01 03:01:08;;;;;;;8.18;2.00;;;;;;;7.98;94.29;100047.53;5074074;28;20052;-73
2024/03/01 03:03:36;;;;;;;9.63;2.33;;;;;;;8.15;94.04;100047.66;5070358;28;20523;-73
2024/03/01 03:06:04;;;;;;;6.63;2.35;;;;;;;8.27;93.27;100045.16;5058486;28;20049;-72
2024/03/01 03:08:31;;;;;;;11.95;2.45;;;;;;;8.12;93.27;100044.72;5063841;28;20052;-74
2024/03/01 03:10:58;;;;;;;5.68;2.00;;;;;;;8.09;93.85;100043.41;5054867;28;20057;-72
2024/03/01 03:13:26;;;;;;;6.95;2.25;;;;;;;8.10;93.37;100036.00;5072120;28;20086;-73
2024/03/01 03:15:54;;;;;;;7.57;2.45;;;;;;;8.11;93.68;100046.66;5071064;28;20044;-73
2024/03/01 03:18:21;;;;;;;7.50;2.15;;;;;;;7.95;93.88;100045.41;5071620;28;20055;-73
2024/03/01 03:20:48;;;;;;;7.90;1.85;;;;;;;7.89;93.62;100052.16;5070670;28;20052;-73
2024/03/01 03:23:16;;;;;;;11.05;2.08;;;;;;;7.69;95.02;100049.88;5071487;28;20040;-73
2024/03/01 03:25:43;;;;;;;11.48;1.95;;;;;;;7.72;95.24;100052.03;5069381;28;20075;-73
2024/03/01 03:28:11;;;;;;;6.05;2.00;;;;;;;7.89;94.68;100054.91;5070258;28;20067;-72
2024/03/01 03:30:38;;;;;;;10.35;2.50;;;;;;;7.63;95.13;100060.19;5070376;28;20052;-71
2024/03/01 03:33:05;;;;;;;5.68;2.30;;;;;;;7.68;95.75;100059.25;5051916;28;20063;-72
2024/03/01 03:35:33;;;;;;;9.43;2.47;;;;;;;7.96;94.90;100047.03;5085525;28;20048;-73
2024/03/01 03:38:03;;;;;;;9.45;2.25;;;;;;;7.71;95.14;100050.41;5070903;28;20051;-71
2024/03/01 03:40:30;;;;;;;;;;;;;;;7.91;95.12;100055.41;5079028;28;20048;-72
2024/03/01 03:42:58;;;;;;;5.25;1.92;;;;;;;7.99;94.35;100051.91;5069616;28;19924;-72
2024/03/01 03:45:26;;;;;;;11.13;1.88;;;;;;;7.96;94.83;100069.81;5069664;28;20695;-72
2024/03/01 03:47:53;;;;;;;9.13;2.08;;;;;;;7.94;94.44;100063.81;5045551;28;20056;-73
2024/03/01 03:50:21;;;;;;;9.30;2.55;;;;;;;7.76;95.19;100075.75;5055352;28;20063;-72
2024/03/01 03:52:48;;;;;;;8.13;2.20;;;;;;;7.78;95.39;100075.44;5073317;28;20052;-71
2024/03/01 03:55:16;;;;;;;6.32;2.00;;;;;;;7.73;95.81;100059.94;5071940;28;20044;-72
2024/03/01 03:57:43;;;;;;;8.57;2.05;;;;;;;7.63;95.63;100051.97;5070145;28;20051;-72
2024/03/01 04:00:14;;;;;;;6.82;1.85;;;;;;;7.59;96.29;100050.97;5057586;28;20392;-72
2024/03/01 04:02:45;;;;;;;9.80;2.03;;;;;;;7.73;95.69;100059.13;5041160;28;20048;-73
2024/03/01 04:05:13;;;;;;;9.95;2.10;;;;;;;7.93;95.11;100062.19;5051275;28;20498;-72
2024/03/01 04:07:40;;;;;;;12.68;2.22;;;;;;;7.60;94.25;100058.03;5066657;28;20052;-71
2024/03/01 04:10:09;;;;;;;12.38;2.20;;;;;;;7.45;94.88;100072.09;5069240;28;20048;-72
2024/03/01 04:12:36;;;;;;;12.02;1.98;;;;;;;7.52;94.91;100069.75;5051936;28;20052;-72
2024/03/01 04:15:05;;;;;;;8.70;1.80;;;;;;;7.43;94.81;100060.63;5069773;28;20056;-72
2024/03/01 04:17:33;;;;;;;8.38;1.73;;;;;;;7.50;94.72;100062.94;5049397;28;20056;-74
2024/03/01 04:20:05;;;;;;;7.97;1.90;;;;;;;7.58;93.87;100059.50;5050204;28;20127;-73
2024/03/01 04:22:33;;;;;;;8.85;1.58;;;;;;;7.55;93.91;100060.13;5068361;28;20506;-73
2024/03/01 04:25:01;;;;;;;8.73;1.45;;;;;;;7.44;93.89;100064.19;5081986;28;20838;-73
2024/03/01 04:27:30;;;;;;;15.55;2.08;;;;;;;7.58;93.31;100064.97;5067150;28;20403;-72
2024/03/01 04:29:58;;;;;;;9.13;1.85;;;;;;;7.49;93.23;100064.91;5068419;28;20753;-72
2024/03/01 04:32:25;;;;;;;6.05;1.40;;;;;;;7.39;93.16;100067.06;5050649;28;20048;-73
2024/03/01 04:34:54;;;;;;;13.18;2.05;;;;;;;7.59;93.48;100061.09;5067940;28;20081;-71
2024/03/01 04:37:21;;;;;;;9.93;2.22;;;;;;;7.44;93.00;100067.75;5068376;28;20061;-73
2024/03/01 04:39:49;;;;;;;8.27;1.70;;;;;;;7.60;93.11;100065.47;5066122;28;20056;-72
2024/03/01 04:42:17;;;;;;;9.15;1.83;;;;;;;7.56;93.09;100065.28;5067657;28;20486;-72
2024/03/01 04:44:45;;;;;;;10.55;1.60;;;;;;;7.42;92.85;100059.03;5065929;28;20060;-73
2024/03/01 04:47:13;;;;;;;10.07;1.55;;;;;;;7.41;93.62;100059.34;5082571;28;20060;-72
2024/03/01 04:49:43;;;;;;;8.70;1.83;;;;;;;7.53;93.27;100060.41;5065926;28;20064;-72
2024/03/01 04:52:11;;;;;;;11.38;1.73;;;;;;;7.63;92.73;100062.09;5066163;28;20056;-72
2024/03/01 04:54:38;;;;;;;11.20;2.00;;;;;;;7.57;92.55;100053.19;5067126;28;20056;-72
2024/03/01 04:57:09;;;;;;;14.95;1.83;;;;;;;7.37;92.57;100058.34;5075231;28;20070;-73
2024/03/01 04:59:39;;;;;;;8.20;2.13;;;;;;;7.41;93.21;100051.13;5088305;28;20051;-73
2024/03/01 05:02:07;;;;;;;8.73;1.80;;;;;;;7.32;93.24;100050.22;5072685;28;20052;-71
2024/03/01 05:04:35;;;;;;;11.45;2.03;;;;;;;7.28;92.91;100046.47;5066320;28;20056;-73
2024/03/01 05:07:04;;;;;;;13.55;2.20;;;;;;;7.27;93.75;100048.41;5067721;28;20724;-73
2024/03/01 05:09:31;;;;;;;9.75;2.17;;;;;;;7.34;92.91;100039.78;5067976;28;20052;-72
2024/03/01 05:11:59;;;;;;;10.57;2.38;;;;;;;7.33;92.91;100035.41;5068467;28;20059;-73
2024/03/01 05:14:26;;;;;;;14.02;2.72;;;;;;;7.40;92.72;100030.31;5068366;28;20052;-73
2024/03/01 05:16:53;;;;;;;10.20;2.10;;;;;;;7.44;91.92;100029.41;5068126;28;20044;-74
2024/03/01 05:19:21;;;;;;;11.15;1.85;;;;;;;7.46;91.67;100029.09;5067548;28;20056;-72
2024/03/01 05:21:48;;;;;;;12.27;1.98;;;;;;;7.31;91.76;100030.22;5068361;28;20071;-73
2024/03/01 05:24:15;;;;;;;8.50;1.75;;;;;;;7.25;92.29;100026.00;5067929;28;20060;-74
2024/03/01 05:26:44;;;;;;;12.60;2.10;;;;;;;7.36;91.62;100023.81;5065249;28;20393;-74
2024/03/01 05:29:11;;;;;;;12.38;2.72;;;;;;;7.46;91.42;100026.34;5049847;28;20053;-73
2024/03/01 05:31:48;;;;;;;15.07;2.30;;;;;;;7.37;91.30;100014.50;5066940;28;20056;-74
2024/03/01 05:34:16;;;;;;;17.15;5.38;;;;;;;7.47;91.42;99992.34;5048866;28;20057;-73
2024/03/01 05:36:43;;;;;;;13.27;3.28;;;;;;;7.45;91.27;99989.09;5047206;28;20053;-72
2024/03/01 05:39:17;;;;;;;18.00;6.82;;;;;;;7.39;91.02;99996.63;5046839;28;20052;-73
2024/03/01 05:41:45;;;;;;;12.23;2.47;;;;;;;7.24;92.25;99996.97;5066421;28;20101;-74
2024/03/01 05:44:15;;;;;;;15.43;2.40;;;;;;;7.19;92.91;100005.31;5049352;28;20048;-73
2024/03/01 05:46:44;;;;;;;13.88;2.67;;;;;;;7.14;92.97;99999.97;5067653;28;20610;-73
2024/03/01 05:49:11;;;;;;;10.55;2.15;;;;;;;7.19;93.20;99988.06;5066982;28;20060;-74
2024/03/01 05:51:39;;;;;;;6.55;1.73;;;;;;;7.30;93.50;99986.72;5049897;28;20793;-73
2024/03/01 05:54:06;;;;;;;11.00;2.45;;;;;;;7.10;93.38;99988.00;5067830;28;20052;-72
2024/03/01 05:56:34;;;;;;;15.02;2.38;;;;;;;7.16;93.66;99985.94;5067290;28;20045;-73
2024/03/01 05:59:01;;;;;;;12.63;2.47;;;;;;;7.14;93.95;99960.78;5084041;28;20059;-73
2024/03/01 06:01:28;;;;;;;14.43;2.33;;;;;;;7.23;93.48;99962.50;5083361;28;20071;-72
2024/03/01 06:03:56;;;;;;;12.10;3.35;;;;;;;7.36;92.32;99949.84;5069487;28;20048;-71
2024/03/01 06:06:23;;;;;;;11.38;2.42;;;;;;;7.27;92.70;99949.78;5071509;28;20056;-72
2024/03/01 06:08:51;;;;;;;10.60;2.72;;;;;;;7.04;93.93;99948.16;5071066;28;20059;-72
2024/03/01 06:11:18;;;;;;;9.77;2.10;;;;;;;7.17;94.20;99941.81;5070891;28;20051;-72
2024/03/01 06:13:46;;;;;;;12.55;2.55;;;;;;;7.16;93.71;99933.91;5071146;28;20049;-72
2024/03/01 06:16:13;;;;;;;11.10;2.25;;;;;;;7.07;93.80;99938.50;5059274;28;20060;-73
2024/03/01 06:18:41;;;;;;;12.55;3.35;;;;;;;6.98;94.56;99930.22;5065748;28;20751;-72
2024/03/01 06:21:08;;;;;;;20.38;6.30;;;;;;;7.10;94.36;99922.28;5050604;28;20068;-73
2024/03/01 06:23:36;;;;;;;10.85;2.88;;;;;;;6.95;94.18;99919.06;5068269;28;20048;-74
2024/03/01 06:26:03;;;;;;;11.35;2.95;;;;;;;7.00;95.46;99921.69;5069262;28;20063;-73
2024/03/01 06:28:30;;;;;;;12.63;2.50;;;;;;;6.95;95.63;99927.28;5073415;28;20058;-73
2024/03/01 06:30:58;;;;;;;7.88;2.00;;;;;;;6.83;95.70;99923.16;5072165;28;20056;-73
2024/03/01 06:33:26;;;;;;;13.43;2.28;;;;;;;6.83;95.99;99914.94;5072117;28;20059;-72
2024/03/01 06:35:54;;;;;;;16.00;2.35;;;;;;;6.82;96.30;99907.88;5066976;28;20048;-74
2024/03/01 06:38:21;;;;;;;10.85;3.10;;;;;;;6.74;96.32;99908.59;5072746;28;20064;-74
2024/03/01 06:40:48;;;;;;;12.10;3.13;;;;;;;6.76;97.02;99902.81;5070749;28;20052;-71
2024/03/01 06:43:16;;;;;;;14.23;4.57;;;;;;;6.65;97.62;99902.22;5067593;28;20056;-73
2024/03/01 06:45:43;;;;;;;17.80;4.18;;;;;;;6.68;97.13;99893.41;5067988;28;20051;-73
2024/03/01 06:48:11;;;;;;;11.45;2.72;;;;;;;6.62;98.14;99893.81;5067834;28;20626;-73
2024/03/01 06:50:44;;;;;;;12.95;3.20;;;;;;;6.65;98.11;99891.28;5069001;28;20056;-73
2024/03/01 06:53:11;;;;;;;15.82;3.22;;;;;;;6.53;98.59;99890.19;5067588;28;20056;-73
2024/03/01 06:55:39;;;;;;;15.50;3.03;;;;;;;6.59;98.97;99876.09;5067534;28;20055;-73
2024/03/01 06:58:07;;;;;;;16.60;2.88;;;;;;;6.83;98.26;99870.34;5067819;28;20056;-73
2024/03/01 07:00:34;;;;;;;9.27;2.70;;;;;;;6.83;97.44;99867.63;5068757;28;20057;-72
2024/03/01 07:03:02;;;;;;;12.20;2.58;;;;;;;6.89;96.99;99866.38;5069914;28;20479;-71
2024/03/01 07:05:30;;;;;;;15.55;2.80;;;;;;;7.08;96.76;99875.22;5069318;28;20061;-72
2024/03/01 07:07:57;;;;;;;24.63;4.30;;;;;;;6.80;95.86;99876.44;5067094;28;20049;-74
2024/03/01 07:10:25;;;;;;;16.83;3.63;;;;;;;6.78;97.06;99863.06;5077675;28;20044;-73
2024/03/01 07:12:52;;;;;;;12.70;2.83;;;;;;;6.92;95.76;99848.53;5072891;28;20438;-72
2024/03/01 07:15:20;;;;;;;13.75;3.10;;;;;;;6.94;96.11;99840.81;5087808;28;20048;-73
2024/03/01 07:17:47;;;;;;;16.48;3.25;;;;;;;6.97;95.94;99851.13;5066070;28;20063;-73
2024/03/01 07:20:15;;;;;;;14.93;3.17;;;;;;;6.88;96.33;99826.44;5062402;28;20435;-69
2024/03/01 07:22:42;;;;;;;11.50;3.50;;;;;;;7.09;96.71;99816.63;5066923;28;20068;-68
2024/03/01 07:25:10;;;;;;;20.10;3.88;;;;;;;7.09;95.69;99824.00;5046286;28;20064;-75
2024/03/01 07:27:37;;;;;;;14.02;2.55;;;;;;;7.15;95.99;99812.59;5063630;28;20049;-71
2024/03/01 07:30:05;;;;;;;10.05;2.58;;;;;;;7.11;95.51;99797.13;5066298;28;20053;-73
2024/03/01 07:32:34;;;;;;;19.20;2.92;;;;;;;7.35;95.49;99794.84;5066302;28;20082;-69
2024/03/01 07:35:06;;;;;;;12.00;2.72;;;;;;;7.24;94.18;99799.78;5064717;28;20057;-68
2024/03/01 07:37:33;;;;;;;11.38;3.30;;;;;;;7.38;94.31;99775.03;5034319;28;20041;-69
2024/03/01 07:40:02;;;;;;;14.27;2.70;;;;;;;7.58;92.83;99771.75;5067557;28;20060;-69
2024/03/01 07:42:32;;;;;;;17.73;2.95;;;;;;;7.74;91.62;99779.22;5044819;28;20057;-69
2024/03/01 07:44:59;;;;;;;13.73;2.40;;;;;;;7.84;89.92;99775.38;5048256;28;20056;-69
2024/03/01 07:47:29;;;;;;;12.43;2.55;;;;;;;7.99;89.08;99770.28;5030609;28;20055;-68
2024/03/01 07:49:57;;;;;;;18.30;2.67;;;;;;;8.26;88.33;99771.16;5051362;28;20060;-69
2024/03/01 07:52:28;;;;;;;13.00;2.35;;;;;;;8.34;87.09;99760.19;5066066;28;20917;-69
2024/03/01 07:54:56;;;;;;;11.85;2.08;;;;;;;8.13;85.78;99750.94;5064145;28;20074;-69
2024/03/01 07:57:26;;;;;;;;;;;;;;;8.22;86.35;99751.75;5047043;28;20049;-69
2024/03/01 07:59:53;;;;;;;14.32;2.80;;;;;;;8.19;86.10;99740.63;5058819;28;19928;-68
2024/03/01 08:02:20;;;;;;;13.52;2.53;;;;;;;8.42;85.36;99742.13;5081849;28;20045;-69
2024/03/01 08:04:49;;;;;;;20.60;3.28;;;;;;;8.45;84.51;99733.22;5064004;28;20710;-68
2024/03/01 08:07:17;;;;;;;20.05;3.28;;;;;;;8.47;84.08;99715.28;5065764;28;20055;-68
2024/03/01 08:09:45;;;;;;;11.93;3.00;;;;;;;8.41;83.57;99727.59;5059951;28;20052;-70
2024/03/01 08:12:18;;;;;;;14.00;2.58;;;;;;;8.82;83.51;99725.09;5063064;28;20754;-68
2024/03/01 08:14:46;;;;;;;17.33;3.35;;;;;;;8.93;81.82;99718.16;5060973;28;20048;-69
2024/03/01 08:17:14;;;;;;;14.35;2.30;;;;;;;8.78;81.28;99713.19;5057575;28;20049;-68
2024/03/01 08:19:46;;;;;;;14.27;2.30;;;;;;;9.13;80.08;99711.94;5054551;28;20056;-68
2024/03/01 08:22:19;;;;;;;13.43;2.85;;;;;;;9.08;80.47;99716.84;5062774;28;20052;-70
2024/03/01 08:24:52;;;;;;;13.93;2.20;;;;;;;9.07;78.93;99706.97;5068654;28;20044;-71
2024/03/01 08:27:25;;;;;;;12.07;2.47;;;;;;;8.98;79.10;99697.94;5068785;28;20052;-68
2024/03/01 08:29:54;;;;;;;15.27;2.58;;;;;;;8.93;79.50;99693.44;5063140;28;20048;-69
2024/03/01 08:32:32;;;;;;;12.60;2.63;;;;;;;9.10;79.02;99693.38;5041873;28;20044;-71
2024/03/01 08:35:00;;;;;;;10.13;2.63;;;;;;;9.22;79.25;99692.72;5053605;28;20301;-71
2024/03/01 08:37:30;;;;;;;15.25;2.30;;;;;;;9.24;78.49;99706.09;5060243;28;20048;-70
2024/03/01 08:40:00;;;;;;;15.32;2.95;;;;;;;9.24;78.01;99673.91;5046385;28;20045;-69
2024/03/01 08:42:31;;;;;;;19.77;2.88;;;;;;;9.39;77.90;99667.06;5049679;28;20049;-70
2024/03/01 08:44:59;;;;;;;20.17;3.20;;;;;;;9.33;77.68;99671.16;5071705;28;20270;-70
2024/03/01 08:47:37;;;;;;;14.23;2.25;;;;;;;9.23;78.49;99663.28;5034252;28;20037;-70
2024/03/01 08:50:20;;;;;;;17.17;2.50;;;;;;;9.30;78.29;99655.31;5055576;28;20060;-70
2024/03/01 08:52:47;;;;;;;13.95;2.42;;;;;;;9.39;77.79;99643.16;5081489;28;20275;-69
2024/03/01 08:55:21;;;;;;;9.68;2.33;;;;;;;9.42;77.04;99634.25;5063648;28;20055;-70
2024/03/01 08:57:48;;;;;;;21.58;2.67;;;;;;;9.35;76.93;99631.22;5063487;28;20060;-69
2024/03/01 09:00:38;;;;;;;10.82;1.75;;;;;;;9.51;76.59;99639.69;5068999;28;20683;-69
2024/03/01 09:03:09;;;;;;;13.77;2.28;;;;;;;9.39;76.50;99625.84;5057703;28;20045;-70
2024/03/01 09:05:39;;;;;;;12.05;2.30;;;;;;;9.46;76.95;99631.63;5024421;28;20697;-70
2024/03/01 09:08:08;;;;;;;15.02;3.03;;;;;;;9.24;77.64;99629.19;5059807;28;20547;-70
2024/03/01 09:10:36;;;;;;;21.85;3.25;;;;;;;9.18;78.35;99634.06;5063914;28;20403;-70
2024/03/01 09:13:05;;;;;;;13.88;2.10;;;;;;;9.13;78.37;99637.78;5065098;28;20056;-70
2024/03/01 09:15:38;;;;;;;15.25;3.03;;;;;;;9.26;78.52;99624.94;5050141;28;20052;-70
2024/03/01 09:18:26;;;;;;;18.20;2.53;;;;;;;9.30;77.53;99627.84;5056504;28;20468;-69
2024/03/01 09:20:57;;;;;;;12.88;2.50;;;;;;;9.21;78.82;99602.34;5066945;28;20044;-69
2024/03/01 09:23:24;;;;;;;23.58;2.85;;;;;;;9.15;79.19;99606.44;5038356;28;20070;-69
2024/03/01 09:25:59;;;;;;;15.20;2.65;;;;;;;9.45;79.40;99597.06;5054833;28;20068;-70
2024/03/01 09:28:27;;;;;;;14.52;2.58;;;;;;;9.57;78.16;99600.66;5064031;28;20045;-69
2024/03/01 09:30:56;;;;;;;17.35;2.55;;;;;;;9.67;76.70;99593.97;5062451;28;20052;-70
2024/03/01 09:33:24;;;;;;;19.85;2.53;;;;;;;9.46;77.55;99590.41;5060249;28;20441;-69
2024/03/01 09:35:51;;;;;;;18.95;3.42;;;;;;;9.58;78.38;99582.25;5056980;28;20037;-69
2024/03/01 09:38:25;;;;;;;17.80;3.30;;;;;;;9.58;79.33;99585.00;5068959;28;20663;-68
2024/03/01 09:40:59;;;;;;;13.13;2.83;;;;;;;9.47;80.32;99572.75;5063128;28;20127;-69
2024/03/01 09:43:44;;;;;;;13.23;2.25;;;;;;;9.47;81.62;99573.59;5062301;28;20075;-70
2024/03/01 09:46:37;;;;;;;23.33;3.15;;;;;;;9.50;81.32;99585.88;5071646;28;20060;-69
2024/03/01 09:49:14;;;;;;;18.33;2.75;;;;;;;9.26;82.51;99572.75;5065848;28;20047;-69
2024/03/01 09:52:05;;;;;;;21.67;2.97;;;;;;;9.29;82.95;99571.28;5070463;28;20041;-69
2024/03/01 09:54:44;;;;;;;15.05;2.80;;;;;;;9.41;83.68;99577.69;5041865;28;20784;-69
2024/03/01 09:57:29;;;;;;;16.40;2.67;;;;;;;9.51;82.82;99574.53;5064528;28;20065;-71
2024/03/01 10:00:08;;;;;;;15.00;2.63;;;;;;;9.58;83.59;99552.81;5058828;28;20044;-69
2024/03/01 10:02:45;;;;;;;16.00;2.95;;;;;;;9.45;83.42;99556.63;5062493;28;20055;-70
2024/03/01 10:05:33;;;;;;;18.00;3.40;;;;;;;9.56;83.28;99546.84;5072062;28;20057;-69
2024/03/01 10:08:29;;;;;;;20.05;2.63;;;;;;;9.64;81.89;99550.69;5057544;28;20555;-70
2024/03/01 10:11:12;;;;;;;19.77;3.17;;;;;;;9.66;81.65;99562.16;5068952;28;20052;-70
2024/03/01 10:13:49;;;;;;;15.35;2.90;;;;;;;9.68;81.42;99552.41;5061663;28;20056;-69
2024/03/01 10:16:25;;;;;;;17.98;3.25;;;;;;;9.74;81.73;99559.31;5058445;28;20463;-70
2024/03/01 10:19:07;;;;;;;14.55;2.95;;;;;;;10.01;80.88;99564.25;5071033;28;20044;-69
2024/03/01 10:22:02;;;;;;;12.50;2.58;;;;;;;10.19;79.89;99563.00;5046801;28;20064;-69
2024/03/01 10:24:57;;;;;;;19.45;3.22;;;;;;;10.12;79.20;99556.41;5069440;28;20269;-69
2024/03/01 10:27:36;;;;;;;14.20;2.67;;;;;;;9.93;80.91;99553.34;5065375;28;20052;-69
2024/03/01 10:30:11;;;;;;;21.38;3.17;;;;;;;10.09;80.58;99566.13;5069903;28;20056;-68
2024/03/01 10:33:00;;;;;;;16.95;3.40;;;;;;;10.33;79.93;99562.69;5067326;28;20049;-68
2024/03/01 10:35:55;;;;;;;21.15;4.38;;;;;;;10.19;80.13;99568.50;5073378;28;20052;-70
2024/03/01 10:38:23;;;;;;;19.20;3.72;;;;;;;10.33;80.09;99557.19;5056098;28;20495;-70
2024/03/01 10:41:04;;;;;;;16.25;3.03;;;;;;;10.44;80.26;99566.63;5051372;28;20057;-69
2024/03/01 10:44:06;;;;;;;21.05;3.15;;;;;;;10.68;80.46;99561.16;5043464;28;20060;-70
2024/03/01 10:46:38;;;;;;;20.65;3.60;;;;;;;10.61;80.65;99573.88;5070474;28;20044;-69
2024/03/01 10:49:15;;;;;;;18.20;2.85;;;;;;;10.63;81.42;99564.13;5063375;28;20060;-70
2024/03/01 10:51:49;;;;;;;13.98;2.45;;;;;;;10.75;81.23;99550.38;5073084;28;20052;-72
2024/03/01 10:54:17;;;;;;;21.90;3.97;;;;;;;10.85;80.82;99540.84;5059997;28;20519;-69
2024/03/01 10:56:44;;;;;;;22.35;3.25;;;;;;;10.81;81.64;99543.50;5073475;28;20067;-70
2024/03/01 10:59:18;;;;;;;16.77;2.90;;;;;;;10.85;81.41;99547.19;5063846;28;20040;-70
2024/03/01 11:01:52;;;;;;;20.92;3.80;;;;;;;10.97;81.14;99551.88;5069062;28;20044;-70
2024/03/01 11:04:28;;;;;;;15.57;3.40;;;;;;;11.25;80.02;99556.34;5062378;28;20060;-68
2024/03/01 11:07:14;;;;;;;17.45;3.13;;;;;;;11.26;79.53;99544.16;5065905;28;20059;-69
2024/03/01 11:09:54;;;;;;;14.35;2.78;;;;;;;11.08;81.07;99545.56;5079546;28;20055;-68
2024/03/01 11:12:28;;;;;;;13.73;2.75;;;;;;;11.17;81.50;99538.00;5072483;28;20064;-70
2024/03/01 11:15:03;;;;;;;14.85;3.20;;;;;;;11.21;80.72;99547.16;5048190;28;20487;-69
2024/03/01 11:17:32;;;;;;;12.98;2.50;;;;;;;11.13;80.84;99556.38;5069928;28;20048;-69
2024/03/01 11:20:03;;;;;;;13.90;3.00;;;;;;;11.33;80.91;99560.94;5071321;28;20048;-68
2024/03/01 11:22:33;;;;;;;14.20;3.30;;;;;;;11.53;79.96;99547.34;5048628;28;20079;-70
2024/03/01 11:25:05;;;;;;;13.35;3.03;;;;;;;11.58;79.82;99550.66;5069592;28;20440;-69
2024/03/01 11:27:36;;;;;;;14.48;3.53;;;;;;;11.48;80.04;99553.91;5075620;28;20060;-70
2024/03/01 11:30:05;;;;;;;14.40;2.58;;;;;;;11.19;80.71;99552.22;5076295;28;20040;-69
2024/03/01 11:32:36;;;;;;;15.73;2.60;;;;;;;11.16;81.87;99546.59;5068186;28;20044;-69
2024/03/01 11:35:38;;;;;;;16.67;2.97;;;;;;;11.41;81.14;99542.66;5078458;28;20051;-68
2024/03/01 11:38:28;;;;;;;10.70;2.08;;;;;;;11.48;81.36;99533.78;5069710;28;20487;-69
2024/03/01 11:41:10;;;;;;;13.82;3.53;;;;;;;11.59;80.91;99534.94;5072521;28;20844;-68
2024/03/01 11:43:39;;;;;;;11.90;3.40;;;;;;;11.97;80.19;99516.78;5071788;28;20060;-69
2024/03/01 11:46:12;;;;;;;19.20;6.03;;;;;;;11.96;79.09;99515.16;5057561;28;20132;-69